METAR AND TAF INFORMATION
METAR FOR LEST
ADDS - METARS form results

(1908 UTC 05 April 2020)
Data provider http://aviationweather.gov/metar/data/
 
METAR text: LEST 051900Z 22005KT 190V270 9999 FEW010 BKN032 12/11 Q1012 NOSIG
Conditions at: LEST (SANTIAGO/LABACOL, ES) observed 1900 UTC 05 April 2020
Temperature: 12.0°C (54°F)
Dewpoint: 11.0°C (52°F) [RH = 94%]
Pressure (altimeter): 29.88 inches Hg (1012.0 mb)
Winds: from the SW (220 degrees) at 6 MPH (5 knots; 2.6 m/s)
Visibility: 6 or more miles (10+ km)
Ceiling: 3200 feet AGL
Clouds: few clouds at 1000 feet AGL
broken clouds at 3200 feet AGL
Weather: no significant weather observed at this time

METAR text: LEST 051830Z 22007KT 160V260 9999 SCT012 SCT032 13/11 Q1012 NOSIG
Conditions at: LEST (SANTIAGO/LABACOL, ES) observed 1830 UTC 05 April 2020
Temperature: 13.0°C (55°F)
Dewpoint: 11.0°C (52°F) [RH = 88%]
Pressure (altimeter): 29.88 inches Hg (1012.0 mb)
Winds: from the SW (220 degrees) at 8 MPH (7 knots; 3.6 m/s)
Visibility: 6 or more miles (10+ km)
Ceiling: at least 12,000 feet AGL
Clouds: scattered clouds at 1200 feet AGL
scattered clouds at 3200 feet AGL
Weather: no significant weather observed at this time

Forecast for: LEST (SANTIAGO/LABACOL, ES)
Text: TAF LEST 051700Z 0518/0618 24009KT 9999 SCT010 BKN020 TX17/0615Z TN07/0606Z
Forecast period: 1800 UTC 05 April 2020 to 1800 UTC 06 April 2020
Forecast type: FROM: standard forecast or significant change
Winds: from the WSW (240 degrees) at 10 MPH (9 knots; 4.6 m/s)
Visibility: 6 or more miles 10+ km)
Ceiling: 2000 feet AGL
Clouds: scattered clouds at 1000 feet AGL
broken clouds at 2000 feet AGL
Weather: no significant weather forecast for this period
Text: TEMPO 0522/0609 3000 BR BKN010
Forecast period: 2200 UTC 05 April 2020 to 0900 UTC 06 April 2020
Forecast type: TEMPORARY: The following changes expected for less than half the time period
Visibility: 1.86 miles (2.99 km)
Ceiling: 1000 feet AGL
Clouds: broken clouds at 1000 feet AGL
Weather: BR  (mist)
Text: TEMPO 0522/0609 0350 FG VV001
Forecast period: 2200 UTC 05 April 2020 to 0900 UTC 06 April 2020
Forecast type: TEMPORARY: The following changes expected for less than half the time period
Visibility: 0.22 miles (0.35 km)
Ceiling: indefinite ceiling with vertical visibility of 100 feet AGL
Clouds: obscured sky
Weather: FG  (fog)

 AIRPORT MAP

 RUNWAY INFORMATION
Runway 17 Runway length 10499 ft Runway width 148 ft
Runway elevation 1170 ft Runway displaced threshold 394 ft Runway heading 166
Runway 35 Runway length 10499 ft Runway width 148 ft
Runway elevation 1196 ft Runway displaced threshold 0 ft Runway heading 346

 AIRPORT FREQUENCIES
Type APP Name APP Frequency 118.2 MHZ
Type GND Name GND Frequency 121.7 MHZ
Type TWR Name TWR Frequency 118.75 MHZ

 AIRPORT NEAR NAVIGATION AIDS
Type NDB Name Santiago Frequency 417 KHZ
Type VOR-DME Name Santiago Frequency 116400 KHZ